Weather History for Windom, MN

Change the Weather History Date:

Saturday, February 9, 2013

  Actual Average Record
Temperature  
Mean Temperature 30 °F -  
Max Temperature 35 °F 26 °F 54 °F (1977)
Min Temperature 24 °F 4 °F -26 °F (1972)
Degree Days  
Heating Degree Days 36    
Moisture  
Dew Point 27 °F    
Average Humidity 92    
Maximum Humidity 100    
Minimum Humidity 81    
Precipitation  
Precipitation 0.00 in - - ()
Sea Level Pressure  
Sea Level Pressure 29.93 in    
Wind  
Wind Speed 14 mph (SSE)    
Max Wind Speed 21 mph    
Max Gust Speed 29 mph    
Visibility 5 miles    
Events      
Averages and records for this station are not official NWS values.
T = Trace of Precipitation, MM = Missing Value Source: NWS Daily Summary

Daily Weather History Graph

Daily Weather History Graph

Search for Another Location

Airport:

Trip Planner

Search our weather history database for the weather conditions in past years. The results will help you decide how hot, cold, wet, or windy it might be!

Date:

Astronomy

Feb. 09, 2013 Rise Set
Actual Time 7:27 AM CST 5:42 PM CST
Civil Twilight 6:57 AM CST 6:12 PM CST
Nautical Twilight 6:23 AM CST 6:46 PM CST
Astronomical Twilight 5:50 AM CST 7:20 PM CST
Moon 6:39 AM CST (2/9) 5:27 PM CST (2/9)
Length of Visible Light 11h 15m
Length of Day
10h 15m
Waning Crescent, 0% of the Moon is Illuminated
Feb 9
Waning Crescent
Feb 10
New
Feb 17
First Quarter
Feb 25
Full
Mar 4
Last Quarter

Hourly Weather History & Observations

Time (CST) Temp. Windchill Dew Point Humidity Pressure Visibility Wind Dir Wind Speed Gust Speed Precip Events Conditions
12:13 AM 24.8 °F 12.4 °F 23.0 °F 93% 30.12 in 7.0 mi SSE 15.0 mph - N/A   Overcast
12:53 AM 24.8 °F 14.6 °F 23.0 °F 93% 30.11 in 7.0 mi SSE 10.4 mph 20.7 mph N/A   Overcast
1:13 AM 24.8 °F 13.4 °F 23.0 °F 93% 30.11 in 5.0 mi SSE 12.7 mph 18.4 mph N/A   Overcast
1:32 AM 24.8 °F 12.4 °F 23.0 °F 93% 30.09 in 5.0 mi SSE 15.0 mph 20.7 mph N/A   Overcast
1:53 AM 24.8 °F 12.4 °F 23.0 °F 93% 30.08 in 5.0 mi SSE 15.0 mph 24.2 mph N/A   Overcast
2:13 AM 24.8 °F 12.4 °F 23.0 °F 93% 30.08 in 5.0 mi SSE 15.0 mph 23.0 mph N/A   Overcast
2:32 AM 24.8 °F 11.5 °F 23.0 °F 93% 30.07 in 5.0 mi SSE 17.3 mph 23.0 mph N/A   Overcast
2:53 AM 24.8 °F 12.9 °F 23.0 °F 93% 30.06 in 5.0 mi SSE 13.8 mph 20.7 mph N/A   Overcast
3:13 AM 24.8 °F 16.1 °F 23.0 °F 93% 30.06 in 5.0 mi South 8.1 mph 20.7 mph N/A   Overcast
3:32 AM 24.8 °F 14.0 °F 23.0 °F 93% 30.05 in 5.0 mi South 11.5 mph 20.7 mph N/A   Overcast
3:53 AM 24.8 °F 12.9 °F 23.0 °F 93% 30.04 in 5.0 mi South 13.8 mph 23.0 mph N/A   Overcast
4:12 AM 24.8 °F 12.9 °F 24.8 °F 100% 30.03 in 5.0 mi South 13.8 mph 21.9 mph N/A   Overcast
4:32 AM 24.8 °F 13.4 °F 24.8 °F 100% 30.03 in 5.0 mi SSE 12.7 mph 20.7 mph N/A   Overcast
4:52 AM 24.8 °F 10.7 °F 24.8 °F 100% 30.01 in 5.0 mi South 19.6 mph 26.5 mph N/A   Overcast
5:12 AM 24.8 °F 10.3 °F 24.8 °F 100% 30.00 in 5.0 mi SSE 20.7 mph 27.6 mph N/A   Overcast
5:33 AM 24.8 °F 13.4 °F 24.8 °F 100% 30.00 in 5.0 mi South 12.7 mph 25.3 mph N/A   Overcast
5:52 AM 24.8 °F 11.5 °F 24.8 °F 100% 30.00 in 5.0 mi SSE 17.3 mph 24.2 mph N/A   Overcast
6:12 AM 24.8 °F 10.7 °F 23.0 °F 93% 29.99 in 7.0 mi SSE 19.6 mph 28.8 mph N/A   Overcast
6:33 AM 24.8 °F 11.5 °F 23.0 °F 93% 29.99 in 7.0 mi SSE 17.3 mph 25.3 mph N/A   Overcast
6:52 AM 24.8 °F 11.5 °F 23.0 °F 93% 30.00 in 10.0 mi South 17.3 mph 28.8 mph N/A   Overcast
7:12 AM 24.8 °F 11.9 °F 23.0 °F 93% 30.01 in 10.0 mi South 16.1 mph 26.5 mph N/A   Overcast
7:33 AM 24.8 °F 12.9 °F 23.0 °F 93% 30.01 in 10.0 mi South 13.8 mph 25.3 mph N/A   Overcast
7:52 AM 24.8 °F 13.4 °F 23.0 °F 93% 30.01 in 10.0 mi South 12.7 mph 20.7 mph N/A   Overcast
8:12 AM 26.6 °F 15.2 °F 24.8 °F 93% 30.01 in 7.0 mi South 13.8 mph 24.2 mph N/A   Overcast
8:33 AM 26.6 °F 13.4 °F 24.8 °F 93% 30.00 in 5.0 mi South 18.4 mph 23.0 mph N/A   Overcast
8:52 AM 26.6 °F 15.2 °F 24.8 °F 93% 30.00 in 4.0 mi South 13.8 mph 20.7 mph N/A   Overcast
9:12 AM 26.6 °F 14.7 °F 26.6 °F 100% 29.99 in 2.5 mi South 15.0 mph 23.0 mph N/A   Overcast
9:33 AM 26.6 °F 16.2 °F 26.6 °F 100% 29.99 in 2.0 mi South 11.5 mph 20.7 mph N/A   Overcast
9:52 AM 26.6 °F 15.2 °F 26.6 °F 100% 29.99 in 2.0 mi South 13.8 mph 20.7 mph N/A   Overcast
10:12 AM 28.4 °F 18.5 °F 26.6 °F 93% 29.99 in 2.0 mi South 11.5 mph 19.6 mph N/A   Overcast
10:33 AM - - - N/A% 29.98 in 2.0 mi South 12.7 mph 21.9 mph N/A   Overcast
10:52 AM 28.4 °F 16.6 °F 26.6 °F 93% 29.98 in 2.5 mi South 16.1 mph 24.2 mph N/A   Overcast
11:12 AM 28.4 °F 16.2 °F 28.4 °F 100% 29.97 in 3.0 mi South 17.3 mph 23.0 mph N/A   Overcast
11:33 AM 30.2 °F 18.9 °F 28.4 °F 93% 29.97 in 3.0 mi South 16.1 mph 23.0 mph N/A   Overcast
11:52 AM 30.2 °F 20.2 °F 28.4 °F 93% 29.96 in 4.0 mi South 12.7 mph 19.6 mph N/A   Overcast
12:12 PM 30.2 °F 20.8 °F 28.4 °F 93% 29.95 in 4.0 mi SSE 11.5 mph 19.6 mph N/A   Overcast
12:33 PM 30.2 °F 19.8 °F 28.4 °F 93% 29.94 in 4.0 mi SSE 13.8 mph 23.0 mph N/A   Overcast
12:52 PM 30.2 °F 20.8 °F 28.4 °F 93% 29.93 in 4.0 mi SSE 11.5 mph - N/A   Overcast
1:33 PM 32.0 °F 23.6 °F 30.2 °F 93% 29.91 in 5.0 mi SE 10.4 mph - N/A   Overcast
1:52 PM 33.8 °F 24.3 °F 30.2 °F 87% 29.90 in 5.0 mi SSE 13.8 mph - N/A   Overcast
2:12 PM 33.8 °F 25.3 °F 30.2 °F 87% 29.88 in 7.0 mi SE 11.5 mph - N/A   Overcast
2:33 PM 33.8 °F 27.0 °F 30.2 °F 87% 29.87 in 7.0 mi SE 8.1 mph - N/A   Overcast
2:52 PM 35.6 °F 28.0 °F 30.2 °F 81% 29.87 in 7.0 mi SE 10.4 mph - N/A   Overcast
3:12 PM 35.6 °F 28.6 °F 30.2 °F 81% 29.86 in 5.0 mi ESE 9.2 mph - N/A   Overcast
3:33 PM 35.6 °F 28.0 °F 30.2 °F 81% 29.85 in 7.0 mi ESE 10.4 mph - N/A   Overcast
3:53 PM 35.6 °F 27.5 °F 32.0 °F 87% 29.84 in 7.0 mi SE 11.5 mph - N/A   Mostly Cloudy
4:12 PM 35.6 °F 26.6 °F 32.0 °F 87% 29.83 in 10.0 mi SE 13.8 mph - N/A   Scattered Clouds
4:33 PM 35.6 °F 27.1 °F 30.2 °F 81% 29.83 in 7.0 mi SE 12.7 mph 18.4 mph N/A   Scattered Clouds
4:53 PM 35.6 °F 27.5 °F 30.2 °F 81% 29.83 in 7.0 mi SE 11.5 mph - N/A   Mostly Cloudy
5:12 PM 33.8 °F 24.3 °F 30.2 °F 87% 29.81 in 7.0 mi SE 13.8 mph 18.4 mph N/A   Mostly Cloudy
5:33 PM 33.8 °F 25.8 °F 30.2 °F 87% 29.82 in 7.0 mi SE 10.4 mph 17.3 mph N/A   Scattered Clouds
5:53 PM 33.8 °F 24.3 °F 30.2 °F 87% 29.83 in 7.0 mi SE 13.8 mph 18.4 mph N/A   Mostly Cloudy
6:12 PM 33.8 °F 25.8 °F 30.2 °F 87% 29.84 in 7.0 mi SE 10.4 mph 19.6 mph N/A   Overcast
6:33 PM 33.8 °F 24.8 °F 30.2 °F 87% 29.84 in 7.0 mi SE 12.7 mph 17.3 mph N/A   Overcast
6:53 PM 33.8 °F 26.4 °F 30.2 °F 87% 29.82 in 7.0 mi ESE 9.2 mph 18.4 mph N/A   Overcast
7:12 PM 33.8 °F 24.3 °F 30.2 °F 87% 29.83 in 7.0 mi SE 13.8 mph 19.6 mph N/A   Overcast
7:33 PM 32.0 °F 22.1 °F 30.2 °F 93% 29.85 in 5.0 mi SE 13.8 mph 18.4 mph N/A   Overcast
7:53 PM 32.0 °F 22.5 °F 30.2 °F 93% 29.85 in 5.0 mi SE 12.7 mph 18.4 mph N/A   Overcast
8:12 PM 32.0 °F 22.1 °F 30.2 °F 93% 29.84 in 5.0 mi SE 13.8 mph 19.6 mph N/A   Overcast
8:33 PM 30.2 °F 18.9 °F 30.2 °F 100% 29.83 in 5.0 mi SE 16.1 mph 24.2 mph N/A   Overcast
8:53 PM - - - N/A% 29.82 in 5.0 mi SE 15.0 mph 19.6 mph N/A   Haze
9:12 PM 30.2 °F 19.3 °F 30.2 °F 100% 29.83 in 4.0 mi SE 15.0 mph 23.0 mph N/A   Overcast
9:33 PM 30.2 °F 20.8 °F 30.2 °F 100% 29.83 in 4.0 mi SE 11.5 mph 19.6 mph N/A   Overcast
9:53 PM 30.2 °F 19.3 °F 28.4 °F 93% 29.82 in 4.0 mi SE 15.0 mph 19.6 mph N/A   Overcast
10:12 PM 30.2 °F 19.8 °F 28.4 °F 93% 29.81 in 4.0 mi SE 13.8 mph - N/A   Overcast
10:33 PM 30.2 °F 19.8 °F 28.4 °F 93% 29.80 in 4.0 mi ESE 13.8 mph - N/A   Overcast
10:53 PM 30.2 °F 19.8 °F 28.4 °F 93% 29.80 in 4.0 mi ESE 13.8 mph 19.6 mph N/A   Overcast
11:12 PM 30.2 °F 19.8 °F 28.4 °F 93% 29.79 in 4.0 mi ESE 13.8 mph - N/A   Overcast
11:33 PM 30.2 °F 20.8 °F 28.4 °F 93% 29.78 in 4.0 mi ESE 11.5 mph - N/A   Overcast
11:53 PM 30.2 °F 20.8 °F 28.4 °F 93% 29.78 in 4.0 mi ESE 11.5 mph - N/A   Overcast